createdAt,value
2018-07-06T00:02:33.583Z,17.60
2018-07-06T00:05:15.464Z,17.60
2018-07-06T00:07:55.360Z,17.60
2018-07-06T00:10:35.400Z,17.60
2018-07-06T00:13:15.366Z,17.70
2018-07-06T00:15:55.060Z,17.70
2018-07-06T00:18:34.981Z,17.70
2018-07-06T00:21:14.731Z,17.70
2018-07-06T00:23:54.439Z,17.70
2018-07-06T00:26:34.337Z,17.80
2018-07-06T00:29:14.586Z,17.80
2018-07-06T00:31:54.454Z,17.60
2018-07-06T00:34:35.216Z,17.60
2018-07-06T00:37:15.017Z,17.50
2018-07-06T00:39:54.920Z,17.50
2018-07-06T00:42:34.645Z,17.50
2018-07-06T00:45:14.399Z,17.50
2018-07-06T00:47:54.077Z,17.60
2018-07-06T00:50:33.963Z,17.70
2018-07-06T00:53:13.652Z,17.60
2018-07-06T00:55:53.476Z,17.60
2018-07-06T00:58:33.241Z,17.50
2018-07-06T01:01:12.885Z,17.30
2018-07-06T01:03:52.537Z,17.20
2018-07-06T01:06:32.447Z,17.30
2018-07-06T01:09:12.377Z,17.40
2018-07-06T01:11:52.426Z,17.40
2018-07-06T01:14:32.358Z,17.50
2018-07-06T01:17:16.244Z,17.40
2018-07-06T01:19:57.133Z,17.50
2018-07-06T01:22:36.769Z,17.50
2018-07-06T01:25:16.594Z,17.50
2018-07-06T01:30:54.691Z,17.40
2018-07-06T01:33:34.427Z,16.90
2018-07-06T01:36:14.125Z,16.70
2018-07-06T01:38:54.844Z,16.70
2018-07-06T01:41:34.523Z,16.70
2018-07-06T01:44:14.473Z,16.60
2018-07-06T01:46:54.460Z,16.60
2018-07-06T01:49:34.243Z,16.70
2018-07-06T01:52:13.986Z,16.60
2018-07-06T01:54:53.650Z,16.40
2018-07-06T01:57:33.506Z,16.50
2018-07-06T02:00:13.075Z,16.50
2018-07-06T02:02:52.686Z,16.50
2018-07-06T02:05:32.459Z,16.60
2018-07-06T02:08:12.401Z,16.60
2018-07-06T02:10:52.180Z,16.60
2018-07-06T02:13:31.796Z,16.70
2018-07-06T02:16:13.344Z,16.60
2018-07-06T02:18:53.102Z,16.60
2018-07-06T02:21:32.818Z,16.50
2018-07-06T02:24:12.417Z,16.40
2018-07-06T02:26:52.199Z,16.50
2018-07-06T02:29:31.913Z,16.50
2018-07-06T02:32:11.565Z,16.50
2018-07-06T02:34:51.143Z,16.50
2018-07-06T02:37:30.858Z,16.50
2018-07-06T02:40:11.750Z,16.60
2018-07-06T02:42:52.649Z,16.60
2018-07-06T02:45:33.371Z,16.50
2018-07-06T02:48:13.753Z,16.50
2018-07-06T02:50:53.577Z,16.50
2018-07-06T02:53:33.445Z,16.60
2018-07-06T02:56:13.218Z,16.50
2018-07-06T02:58:53.564Z,16.60
2018-07-06T03:01:33.419Z,16.60
2018-07-06T03:04:13.158Z,16.60
2018-07-06T03:06:52.903Z,16.70
2018-07-06T03:09:32.745Z,16.60
2018-07-06T03:12:12.449Z,16.60
2018-07-06T03:14:52.177Z,16.60
2018-07-06T03:17:31.962Z,16.50
2018-07-06T03:20:11.532Z,16.60
2018-07-06T03:22:51.406Z,16.60
2018-07-06T03:25:31.322Z,16.60
2018-07-06T03:30:45.121Z,16.60
2018-07-06T03:33:25.154Z,16.60
2018-07-06T03:36:05.009Z,16.60
2018-07-06T03:38:44.909Z,16.70
2018-07-06T03:41:24.804Z,16.70
2018-07-06T03:44:04.712Z,16.80
2018-07-06T03:49:17.845Z,16.70
2018-07-06T03:51:57.548Z,16.70
2018-07-06T03:54:37.553Z,16.70
2018-07-06T03:57:17.203Z,16.70
2018-07-06T03:59:56.938Z,16.70
2018-07-06T04:02:36.578Z,16.70
2018-07-06T04:05:19.480Z,16.90
2018-07-06T04:07:59.228Z,16.80
2018-07-06T04:10:38.829Z,16.90
2018-07-06T04:13:18.727Z,17.00
2018-07-06T04:15:58.444Z,17.10
2018-07-06T04:18:38.259Z,17.10
2018-07-06T04:21:17.879Z,17.20
2018-07-06T04:23:57.690Z,17.30
2018-07-06T04:26:37.379Z,17.20
2018-07-06T04:29:17.052Z,17.10
2018-07-06T04:31:56.813Z,17.20
2018-07-06T04:34:37.580Z,17.10
2018-07-06T04:37:17.271Z,17.00
2018-07-06T04:39:56.767Z,17.00
2018-07-06T04:42:37.081Z,17.10
2018-07-06T04:45:16.855Z,17.00
2018-07-06T04:47:56.834Z,17.00
2018-07-06T04:50:36.666Z,17.00
2018-07-06T04:53:16.350Z,17.00
2018-07-06T04:55:56.283Z,17.10
2018-07-06T04:58:36.497Z,17.10
2018-07-06T05:01:18.444Z,17.00
2018-07-06T05:03:59.412Z,17.00
2018-07-06T05:06:39.109Z,17.00
2018-07-06T05:09:19.102Z,17.10
2018-07-06T05:11:58.742Z,17.10
2018-07-06T05:14:38.517Z,17.00
2018-07-06T05:17:18.395Z,17.00
2018-07-06T05:22:31.940Z,17.20
2018-07-06T05:25:12.389Z,17.20
2018-07-06T05:27:52.322Z,17.30
2018-07-06T05:30:32.034Z,17.40
2018-07-06T05:33:11.736Z,17.40
2018-07-06T05:35:51.605Z,17.50
2018-07-06T05:38:31.991Z,17.60
2018-07-06T05:41:12.052Z,17.30
2018-07-06T05:43:51.978Z,17.40
2018-07-06T05:46:31.858Z,17.50
2018-07-06T05:49:11.748Z,17.40
2018-07-06T05:51:51.589Z,17.50
2018-07-06T05:54:31.425Z,17.30
2018-07-06T05:57:11.163Z,17.20
2018-07-06T05:59:50.979Z,17.10
2018-07-06T06:02:30.752Z,17.30
2018-07-06T06:05:10.584Z,17.30
2018-07-06T06:07:38.111Z,17.50
2018-07-06T06:10:06.812Z,17.50
2018-07-06T06:12:35.523Z,17.70
2018-07-06T06:15:05.732Z,17.70
2018-07-06T06:17:34.637Z,17.70
2018-07-06T06:20:03.438Z,17.70
2018-07-06T06:22:35.216Z,17.60
2018-07-06T06:25:03.984Z,17.70
2018-07-06T06:27:32.698Z,17.70
2018-07-06T06:30:13.782Z,17.80
2018-07-06T06:32:42.536Z,17.80
2018-07-06T06:35:11.303Z,17.80
2018-07-06T06:37:40.503Z,17.80
2018-07-06T06:40:09.169Z,17.70
2018-07-06T06:42:38.878Z,17.70
2018-07-06T06:45:07.621Z,17.70
2018-07-06T06:47:37.068Z,17.90
2018-07-06T06:50:05.806Z,17.90
2018-07-06T06:52:34.781Z,17.90
2018-07-06T06:55:04.745Z,17.90
2018-07-06T06:57:33.797Z,17.90
2018-07-06T07:00:03.819Z,17.80
2018-07-06T07:02:32.573Z,17.80
2018-07-06T07:05:01.408Z,17.90
2018-07-06T07:07:30.547Z,17.80
2018-07-06T07:09:59.213Z,17.90
2018-07-06T07:12:28.075Z,18.00
2018-07-06T07:14:57.038Z,18.00
2018-07-06T07:17:25.839Z,18.00
2018-07-06T07:19:55.064Z,18.10
2018-07-06T07:22:25.495Z,18.00
2018-07-06T07:24:54.417Z,18.10
2018-07-06T07:27:23.199Z,18.20
2018-07-06T07:29:52.056Z,18.20
2018-07-06T07:34:50.138Z,18.20
2018-07-06T07:37:18.993Z,18.20
2018-07-06T07:39:48.961Z,18.30
2018-07-06T07:42:17.771Z,18.40
2018-07-06T07:44:46.599Z,18.10
2018-07-06T07:47:15.580Z,18.20
2018-07-06T07:49:44.404Z,18.20
2018-07-06T07:52:24.347Z,18.10
2018-07-06T07:54:55.111Z,18.10
2018-07-06T07:57:24.213Z,17.90
2018-07-06T07:59:53.765Z,17.80
2018-07-06T08:02:22.555Z,17.80
2018-07-06T08:04:52.024Z,17.80
2018-07-06T08:07:21.019Z,17.80
2018-07-06T08:09:50.166Z,17.80
2018-07-06T08:12:19.854Z,17.90
2018-07-06T08:14:48.759Z,17.80
2018-07-06T08:17:17.603Z,17.80
2018-07-06T08:19:46.331Z,18.00
2018-07-06T08:22:15.124Z,17.90
2018-07-06T08:24:43.934Z,17.90
2018-07-06T08:27:12.808Z,17.80
2018-07-06T08:29:41.675Z,17.80
2018-07-06T08:32:10.514Z,17.60
2018-07-06T08:34:50.530Z,17.60
2018-07-06T08:39:57.904Z,17.50
2018-07-06T08:42:27.981Z,17.50
2018-07-06T08:44:57.633Z,17.50
2018-07-06T08:47:26.584Z,17.60
2018-07-06T08:49:56.298Z,17.50
2018-07-06T08:52:25.124Z,17.40
2018-07-06T08:54:54.028Z,17.40
2018-07-06T08:57:24.108Z,17.40
2018-07-06T09:02:22.353Z,17.30
2018-07-06T09:04:52.097Z,17.40
2018-07-06T09:07:20.901Z,17.40
2018-07-06T09:09:50.224Z,17.30
2018-07-06T09:12:19.968Z,17.40
2018-07-06T09:14:48.760Z,17.50
2018-07-06T09:17:18.648Z,17.50
2018-07-06T09:19:48.007Z,17.40
2018-07-06T09:22:17.264Z,17.40
2018-07-06T09:24:47.155Z,17.40
2018-07-06T09:27:15.974Z,17.40
2018-07-06T09:29:44.881Z,17.60
2018-07-06T09:32:13.713Z,17.60
2018-07-06T09:34:42.778Z,17.70
2018-07-06T09:37:11.638Z,17.60
2018-07-06T09:39:41.442Z,17.70
2018-07-06T09:42:10.355Z,17.70
2018-07-06T09:44:40.271Z,17.70
2018-07-06T09:47:09.059Z,17.70
2018-07-06T09:49:37.786Z,17.70
2018-07-06T09:52:06.648Z,17.80
2018-07-06T09:54:36.395Z,17.90
2018-07-06T09:57:05.182Z,18.10
2018-07-06T09:59:33.870Z,18.10
2018-07-06T10:02:02.695Z,18.10
2018-07-06T10:04:31.467Z,18.30
2018-07-06T10:07:00.246Z,18.30
2018-07-06T10:09:29.555Z,18.40
2018-07-06T10:11:58.401Z,18.50
2018-07-06T10:14:27.185Z,18.40
2018-07-06T10:16:57.179Z,18.40
2018-07-06T10:19:27.019Z,18.60
2018-07-06T10:21:55.905Z,18.70
2018-07-06T10:24:25.898Z,18.80
2018-07-06T10:26:54.707Z,18.70
2018-07-06T10:29:36.297Z,18.70
2018-07-06T10:32:23.844Z,18.60
2018-07-06T10:34:53.767Z,18.90
2018-07-06T10:37:22.734Z,19.20
2018-07-06T10:39:52.021Z,19.30
2018-07-06T10:42:23.627Z,19.40
2018-07-06T10:44:53.064Z,19.60
2018-07-06T10:47:21.789Z,20.00
2018-07-06T10:49:50.514Z,20.40
2018-07-06T10:52:19.271Z,20.60
2018-07-06T10:54:48.302Z,20.80
2018-07-06T10:57:17.033Z,20.70
2018-07-06T10:59:46.847Z,20.70
2018-07-06T11:02:15.495Z,20.90
2018-07-06T11:04:44.297Z,20.80
2018-07-06T11:07:12.939Z,20.60
2018-07-06T11:09:41.747Z,20.50
2018-07-06T11:12:10.447Z,20.70
2018-07-06T11:14:40.208Z,20.90
2018-07-06T11:17:08.922Z,21.20
2018-07-06T11:19:38.700Z,21.30
2018-07-06T11:22:07.382Z,21.80
2018-07-06T11:24:38.104Z,22.00
2018-07-06T11:27:06.887Z,22.00
2018-07-06T11:29:35.570Z,22.10
2018-07-06T11:32:04.355Z,21.90
2018-07-06T11:34:32.981Z,21.80
2018-07-06T11:37:01.677Z,21.50
2018-07-06T11:39:31.082Z,21.50
2018-07-06T11:41:59.778Z,21.50
2018-07-06T11:44:29.453Z,21.80
2018-07-06T11:46:58.165Z,22.30
2018-07-06T11:49:26.911Z,22.60
2018-07-06T11:51:55.673Z,22.50
2018-07-06T11:54:26.347Z,22.20
2018-07-06T11:56:55.044Z,22.00
2018-07-06T11:59:24.909Z,21.80
2018-07-06T12:01:53.617Z,21.60
2018-07-06T12:04:22.427Z,20.90
2018-07-06T12:06:51.029Z,20.80
2018-07-06T12:09:19.759Z,20.40
2018-07-06T12:11:48.598Z,20.60
2018-07-06T12:14:17.265Z,20.40
2018-07-06T12:16:45.976Z,20.30
2018-07-06T12:19:14.745Z,20.40
2018-07-06T12:21:43.416Z,20.50
2018-07-06T12:24:12.106Z,20.70
2018-07-06T12:26:41.001Z,20.80
2018-07-06T12:29:09.780Z,21.10
2018-07-06T12:31:38.376Z,21.40
2018-07-06T12:34:07.149Z,21.40
2018-07-06T12:36:35.931Z,21.30
2018-07-06T12:39:05.123Z,21.00
2018-07-06T12:41:34.905Z,21.10
2018-07-06T12:44:03.679Z,21.30
2018-07-06T12:46:32.752Z,21.90
2018-07-06T12:49:01.799Z,21.40
2018-07-06T12:51:30.514Z,21.40
2018-07-06T12:54:00.023Z,20.90
2018-07-06T12:56:28.941Z,20.60
2018-07-06T12:58:57.575Z,20.60
2018-07-06T13:01:28.278Z,21.00
2018-07-06T13:03:59.351Z,21.40
2018-07-06T13:06:29.060Z,21.50
2018-07-06T13:08:59.630Z,21.70
2018-07-06T13:11:28.616Z,21.90
2018-07-06T13:13:58.428Z,21.90
2018-07-06T13:16:27.115Z,21.90
2018-07-06T13:18:59.665Z,21.60
2018-07-06T13:21:28.346Z,21.40
2018-07-06T13:23:57.001Z,21.40
2018-07-06T13:26:25.688Z,21.20
2018-07-06T13:28:55.286Z,21.20
2018-07-06T13:31:24.973Z,21.30
2018-07-06T13:33:53.647Z,21.40
2018-07-06T13:36:22.327Z,21.20
2018-07-06T13:38:51.119Z,21.40
2018-07-06T13:41:19.792Z,21.10
2018-07-06T13:43:48.430Z,21.10
2018-07-06T13:46:17.108Z,21.40
2018-07-06T13:48:45.826Z,21.60
2018-07-06T13:51:14.496Z,21.30
2018-07-06T13:53:43.197Z,21.10
2018-07-06T13:56:11.945Z,21.50
2018-07-06T13:58:42.584Z,21.80
2018-07-06T14:01:11.289Z,22.10
2018-07-06T14:03:40.006Z,22.30
2018-07-06T14:06:08.668Z,22.60
2018-07-06T14:08:39.366Z,22.80
2018-07-06T14:11:08.078Z,22.50
2018-07-06T14:13:36.841Z,22.60
2018-07-06T14:16:05.622Z,22.40
2018-07-06T14:18:34.415Z,21.90
2018-07-06T14:21:03.077Z,21.90
2018-07-06T14:23:31.702Z,21.60
2018-07-06T14:26:01.357Z,21.40
2018-07-06T14:28:30.022Z,21.40
2018-07-06T14:30:58.703Z,21.40
2018-07-06T14:33:27.422Z,21.70
2018-07-06T14:36:00.292Z,21.50
2018-07-06T14:38:28.996Z,21.60
2018-07-06T14:40:58.744Z,21.90
2018-07-06T14:43:28.361Z,21.90
2018-07-06T14:48:25.424Z,22.30
2018-07-06T14:50:54.244Z,22.10
2018-07-06T14:55:53.306Z,21.70
2018-07-06T14:58:22.971Z,21.60
2018-07-06T15:00:51.713Z,21.60
2018-07-06T15:03:20.431Z,21.70
2018-07-06T15:05:50.070Z,21.90
2018-07-06T15:10:47.109Z,22.30
2018-07-06T15:13:15.806Z,22.80
2018-07-06T15:15:45.496Z,23.30
2018-07-06T15:18:14.994Z,23.00
2018-07-06T15:23:12.121Z,22.80
2018-07-06T15:25:40.735Z,22.80
2018-07-06T15:28:10.365Z,22.80
2018-07-06T15:30:41.041Z,22.80
2018-07-06T15:33:09.776Z,22.90
2018-07-06T15:35:38.363Z,22.70
2018-07-06T15:38:07.058Z,22.50
2018-07-06T15:40:35.734Z,22.80
2018-07-06T15:43:05.393Z,23.00
2018-07-06T15:45:34.071Z,23.00
2018-07-06T15:48:03.737Z,23.00
2018-07-06T15:50:32.359Z,23.90
2018-07-06T15:53:01.000Z,23.80
2018-07-06T15:55:29.592Z,23.90
2018-07-06T15:57:59.225Z,23.40
2018-07-06T16:00:27.874Z,23.90
2018-07-06T16:02:57.427Z,23.50
2018-07-06T16:05:26.125Z,23.50
2018-07-06T16:07:55.259Z,23.20
2018-07-06T16:10:23.912Z,22.90
2018-07-06T16:12:52.568Z,23.00
2018-07-06T16:15:21.228Z,23.20
2018-07-06T16:17:49.884Z,23.20
2018-07-06T16:20:18.561Z,22.80
2018-07-06T16:25:15.386Z,22.30
2018-07-06T16:27:44.004Z,22.40
2018-07-06T16:30:12.655Z,22.60
2018-07-06T16:32:41.320Z,22.40
2018-07-06T16:35:10.963Z,22.40
2018-07-06T16:37:40.627Z,21.90
2018-07-06T16:40:09.312Z,21.10
2018-07-06T16:42:38.341Z,20.90
2018-07-06T16:45:07.966Z,20.90
2018-07-06T16:47:36.623Z,20.60
2018-07-06T16:50:05.293Z,20.40
2018-07-06T16:52:34.025Z,20.30
2018-07-06T16:55:02.697Z,20.20
2018-07-06T16:57:32.435Z,20.10
2018-07-06T17:00:01.061Z,20.10
2018-07-06T17:02:30.660Z,20.10
2018-07-06T17:04:59.311Z,20.10
2018-07-06T17:07:29.973Z,20.00
2018-07-06T17:09:58.657Z,19.90
2018-07-06T17:12:27.267Z,19.70
2018-07-06T17:14:55.923Z,19.60
2018-07-06T17:17:24.706Z,19.40
2018-07-06T17:19:53.386Z,19.30
2018-07-06T17:22:23.113Z,19.10
2018-07-06T17:24:51.784Z,18.60
2018-07-06T17:27:20.429Z,18.40
2018-07-06T17:29:50.127Z,18.20
2018-07-06T17:32:18.727Z,18.00
2018-07-06T17:34:47.417Z,17.60
2018-07-06T17:37:16.221Z,17.50
2018-07-06T17:39:44.922Z,17.50
2018-07-06T17:42:14.640Z,17.50
2018-07-06T17:44:45.699Z,17.50
2018-07-06T17:47:14.439Z,17.50
2018-07-06T17:49:43.167Z,17.40
2018-07-06T17:52:12.928Z,17.50
2018-07-06T17:54:41.701Z,17.50
2018-07-06T17:57:10.349Z,17.50
2018-07-06T17:59:39.281Z,17.30
2018-07-06T18:02:07.939Z,17.30
2018-07-06T18:04:36.612Z,17.40
2018-07-06T18:07:05.264Z,17.50
2018-07-06T18:09:33.912Z,17.50
2018-07-06T18:12:02.575Z,17.30
2018-07-06T18:14:31.599Z,17.10
2018-07-06T18:17:01.353Z,16.90
2018-07-06T18:19:30.067Z,16.80
2018-07-06T18:21:58.855Z,16.80
2018-07-06T18:24:27.520Z,16.70
2018-07-06T18:26:57.162Z,16.60
2018-07-06T18:29:26.038Z,16.40
2018-07-06T18:31:54.702Z,16.40
2018-07-06T18:34:24.398Z,16.40
2018-07-06T18:36:53.055Z,16.40
2018-07-06T18:39:21.851Z,16.40
2018-07-06T18:41:50.703Z,16.30
2018-07-06T18:44:19.401Z,16.30
2018-07-06T18:46:48.496Z,16.30
2018-07-06T18:49:17.180Z,16.40
2018-07-06T18:51:45.882Z,16.40
2018-07-06T18:54:14.494Z,16.30
2018-07-06T18:56:43.798Z,16.50
2018-07-06T18:59:13.620Z,16.50
2018-07-06T19:01:42.332Z,16.50
2018-07-06T19:04:11.001Z,16.40
2018-07-06T19:06:39.656Z,16.40
2018-07-06T19:09:09.344Z,16.40
2018-07-06T19:11:38.986Z,16.40
2018-07-06T19:14:07.642Z,16.30
2018-07-06T19:16:36.589Z,16.30
2018-07-06T19:19:05.363Z,16.30
2018-07-06T19:21:34.225Z,16.30
2018-07-06T19:24:03.022Z,16.30
2018-07-06T19:26:32.650Z,16.20
2018-07-06T19:29:01.338Z,16.20
2018-07-06T19:31:30.162Z,16.10
2018-07-06T19:33:58.838Z,16.10
2018-07-06T19:36:27.541Z,16.20
2018-07-06T19:38:56.250Z,16.00
2018-07-06T19:41:25.791Z,16.00
2018-07-06T19:43:54.546Z,16.00
2018-07-06T19:46:23.171Z,15.80
2018-07-06T19:48:51.828Z,15.80
2018-07-06T19:51:21.520Z,15.90
2018-07-06T19:53:50.218Z,16.00
2018-07-06T19:56:19.846Z,16.00
2018-07-06T19:58:49.523Z,16.00
2018-07-06T20:01:18.159Z,16.00
2018-07-06T20:03:46.779Z,16.00
2018-07-06T20:06:15.427Z,15.90
2018-07-06T20:08:46.048Z,15.90
2018-07-06T20:11:15.766Z,15.80
2018-07-06T20:13:45.542Z,15.70
2018-07-06T20:16:14.434Z,15.80
2018-07-06T20:18:43.095Z,15.80
2018-07-06T20:21:11.773Z,15.90
2018-07-06T20:23:40.407Z,15.80
2018-07-06T20:26:09.093Z,15.70
2018-07-06T20:28:41.039Z,15.60
2018-07-06T20:31:09.676Z,15.60
2018-07-06T20:33:40.361Z,15.60
2018-07-06T20:36:09.079Z,15.60
2018-07-06T20:38:37.791Z,15.60
2018-07-06T20:41:06.527Z,15.80
2018-07-06T20:43:36.225Z,15.80
2018-07-06T20:46:05.122Z,15.80
2018-07-06T20:48:33.799Z,15.90
2018-07-06T20:51:03.384Z,15.80
2018-07-06T20:53:33.443Z,15.80
2018-07-06T20:56:03.143Z,15.80
2018-07-06T20:58:37.139Z,15.60
2018-07-06T21:01:05.835Z,15.60
2018-07-06T21:03:34.431Z,15.70
2018-07-06T21:06:04.109Z,15.70
2018-07-06T21:08:32.742Z,15.80
2018-07-06T21:11:01.366Z,15.70
2018-07-06T21:13:31.020Z,15.80
2018-07-06T21:15:59.744Z,15.70
2018-07-06T21:18:28.409Z,15.80
2018-07-06T21:20:58.221Z,15.90
2018-07-06T21:23:26.885Z,15.80
2018-07-06T21:25:56.518Z,15.40
2018-07-06T21:28:26.200Z,15.80
2018-07-06T21:30:54.956Z,15.80
2018-07-06T21:33:23.576Z,15.90
2018-07-06T21:35:53.267Z,15.90
2018-07-06T21:38:21.952Z,15.90
2018-07-06T21:40:51.633Z,15.90
2018-07-06T21:43:21.327Z,15.90
2018-07-06T21:45:50.039Z,15.80
2018-07-06T21:48:19.666Z,15.80
2018-07-06T21:50:48.530Z,15.70
2018-07-06T21:53:17.154Z,15.80
2018-07-06T21:55:45.828Z,15.90
2018-07-06T21:58:14.485Z,15.90
2018-07-06T22:00:43.219Z,15.90
2018-07-06T22:03:13.139Z,15.80
2018-07-06T22:05:42.680Z,15.80
2018-07-06T22:08:13.659Z,15.90
2018-07-06T22:10:42.314Z,16.00
2018-07-06T22:13:10.936Z,16.10
2018-07-06T22:15:44.515Z,16.10
2018-07-06T22:18:17.686Z,16.10
2018-07-06T22:20:47.411Z,16.20
2018-07-06T22:23:16.620Z,16.30
2018-07-06T22:25:45.327Z,16.20
2018-07-06T22:28:14.016Z,16.20
2018-07-06T22:30:42.775Z,16.20
2018-07-06T22:33:11.445Z,16.20
2018-07-06T22:35:40.169Z,16.20
2018-07-06T22:38:09.970Z,16.10
2018-07-06T22:40:38.822Z,16.10
2018-07-06T22:43:07.656Z,16.20
2018-07-06T22:45:38.349Z,16.10
2018-07-06T22:48:08.171Z,16.10
2018-07-06T22:50:36.878Z,16.10
2018-07-06T22:53:05.852Z,16.10
2018-07-06T22:55:34.557Z,16.10
2018-07-06T22:58:03.257Z,16.20
2018-07-06T23:00:32.990Z,16.30
2018-07-06T23:03:04.064Z,16.30
2018-07-06T23:05:33.870Z,16.30
2018-07-06T23:08:02.547Z,16.30
2018-07-06T23:10:33.437Z,16.20
2018-07-06T23:13:02.117Z,16.20
2018-07-06T23:15:31.856Z,16.20
2018-07-06T23:18:00.622Z,16.20
2018-07-06T23:23:02.844Z,16.20
2018-07-06T23:25:33.089Z,16.30
2018-07-06T23:28:01.751Z,16.20
2018-07-06T23:30:30.451Z,15.90
2018-07-06T23:33:00.287Z,15.70
2018-07-06T23:35:30.054Z,15.50
2018-07-06T23:40:28.220Z,15.50
2018-07-06T23:43:00.768Z,15.60
2018-07-06T23:45:29.800Z,15.80
2018-07-06T23:47:58.438Z,16.00
2018-07-06T23:50:27.189Z,15.90
2018-07-06T23:52:55.857Z,15.70
2018-07-06T23:55:24.505Z,15.70
2018-07-06T23:57:53.171Z,15.60
